sensor_id;sensor_type;location;lat;lon;timestamp;pressure;altitude;pressure_sealevel;temperature;humidity
23176;BME280;19910;42.652;23.332;2022-11-30T00:02:05;94775.78;;;3.53;100.00
23176;BME280;19910;42.652;23.332;2022-11-30T00:04:31;94780.34;;;3.52;100.00
23176;BME280;19910;42.652;23.332;2022-11-30T00:06:58;94784.09;;;3.51;100.00
23176;BME280;19910;42.652;23.332;2022-11-30T00:09:25;94788.91;;;3.54;100.00
23176;BME280;19910;42.652;23.332;2022-11-30T00:11:52;94791.00;;;3.57;100.00
23176;BME280;19910;42.652;23.332;2022-11-30T00:14:18;94789.13;;;3.58;100.00
23176;BME280;19910;42.652;23.332;2022-11-30T00:16:46;94789.63;;;3.65;100.00
23176;BME280;19910;42.652;23.332;2022-11-30T00:19:13;94787.22;;;3.64;100.00
23176;BME280;19910;42.652;23.332;2022-11-30T00:21:40;94790.97;;;3.63;100.00
23176;BME280;19910;42.652;23.332;2022-11-30T00:24:07;94807.91;;;3.53;100.00
23176;BME280;19910;42.652;23.332;2022-11-30T00:26:34;94803.38;;;3.53;100.00
23176;BME280;19910;42.652;23.332;2022-11-30T00:29:01;94803.31;;;3.58;100.00
23176;BME280;19910;42.652;23.332;2022-11-30T00:31:27;94800.72;;;3.48;100.00
23176;BME280;19910;42.652;23.332;2022-11-30T00:33:56;94807.13;;;3.52;100.00
23176;BME280;19910;42.652;23.332;2022-11-30T00:36:23;94807.13;;;3.52;100.00
23176;BME280;19910;42.652;23.332;2022-11-30T00:38:50;94805.00;;;3.44;100.00
23176;BME280;19910;42.652;23.332;2022-11-30T00:41:17;94809.56;;;3.44;100.00
23176;BME280;19910;42.652;23.332;2022-11-30T00:43:44;94798.06;;;3.43;100.00
23176;BME280;19910;42.652;23.332;2022-11-30T00:46:11;94798.59;;;3.45;100.00
23176;BME280;19910;42.652;23.332;2022-11-30T00:48:39;94796.97;;;3.44;100.00
23176;BME280;19910;42.652;23.332;2022-11-30T00:51:09;94794.28;;;3.49;100.00
23176;BME280;19910;42.652;23.332;2022-11-30T00:53:37;94790.56;;;3.45;100.00
23176;BME280;19910;42.652;23.332;2022-11-30T00:56:04;94794.25;;;3.54;100.00
23176;BME280;19910;42.652;23.332;2022-11-30T00:58:31;94786.50;;;3.53;100.00
23176;BME280;19910;42.652;23.332;2022-11-30T01:00:58;94789.38;;;3.62;100.00
23176;BME280;19910;42.652;23.332;2022-11-30T01:03:28;94798.47;;;3.61;100.00
23176;BME280;19910;42.652;23.332;2022-11-30T01:06:00;94792.03;;;3.62;100.00
23176;BME280;19910;42.652;23.332;2022-11-30T01:08:28;94786.66;;;3.67;100.00
23176;BME280;19910;42.652;23.332;2022-11-30T01:10:55;94779.69;;;3.66;100.00
23176;BME280;19910;42.652;23.332;2022-11-30T01:13:23;94784.00;;;3.62;100.00
23176;BME280;19910;42.652;23.332;2022-11-30T01:15:49;94785.63;;;3.63;100.00
23176;BME280;19910;42.652;23.332;2022-11-30T01:18:16;94779.16;;;3.69;100.00
23176;BME280;19910;42.652;23.332;2022-11-30T01:20:43;94787.22;;;3.64;100.00
23176;BME280;19910;42.652;23.332;2022-11-30T01:23:10;94795.78;;;3.66;100.00
23176;BME280;19910;42.652;23.332;2022-11-30T01:25:38;94780.25;;;3.63;100.00
23176;BME280;19910;42.652;23.332;2022-11-30T01:28:05;94786.22;;;3.54;100.00
23176;BME280;19910;42.652;23.332;2022-11-30T01:30:34;94788.09;;;3.54;100.00
23176;BME280;19910;42.652;23.332;2022-11-30T01:33:02;94791.69;;;3.39;100.00
23176;BME280;19910;42.652;23.332;2022-11-30T01:35:29;94784.72;;;3.38;100.00
23176;BME280;19910;42.652;23.332;2022-11-30T01:37:55;94783.41;;;3.36;100.00
23176;BME280;19910;42.652;23.332;2022-11-30T01:40:22;94783.66;;;3.34;100.00
23176;BME280;19910;42.652;23.332;2022-11-30T01:42:50;94784.94;;;3.42;100.00
23176;BME280;19910;42.652;23.332;2022-11-30T01:45:17;94792.78;;;3.33;100.00
23176;BME280;19910;42.652;23.332;2022-11-30T01:47:47;94790.69;;;3.25;100.00
23176;BME280;19910;42.652;23.332;2022-11-30T01:50:17;94783.75;;;3.24;100.00
23176;BME280;19910;42.652;23.332;2022-11-30T01:52:47;94784.81;;;3.23;100.00
23176;BME280;19910;42.652;23.332;2022-11-30T01:55:19;94776.78;;;3.23;100.00
23176;BME280;19910;42.652;23.332;2022-11-30T01:57:51;94784.47;;;3.35;100.00
23176;BME280;19910;42.652;23.332;2022-11-30T02:00:20;94777.53;;;3.34;100.00
23176;BME280;19910;42.652;23.332;2022-11-30T02:02:53;94778.88;;;3.31;100.00
23176;BME280;19910;42.652;23.332;2022-11-30T02:05:23;94774.06;;;3.28;100.00
23176;BME280;19910;42.652;23.332;2022-11-30T02:07:51;94780.38;;;3.42;100.00
23176;BME280;19910;42.652;23.332;2022-11-30T02:10:22;94770.72;;;3.46;100.00
23176;BME280;19910;42.652;23.332;2022-11-30T02:13:19;94770.53;;;3.38;100.00
23176;BME280;19910;42.652;23.332;2022-11-30T02:15:56;94767.94;;;3.28;100.00
23176;BME280;19910;42.652;23.332;2022-11-30T02:18:30;94770.25;;;3.39;100.00
23176;BME280;19910;42.652;23.332;2022-11-30T02:21:05;94774.47;;;3.45;100.00
23176;BME280;19910;42.652;23.332;2022-11-30T02:27:08;94768.75;;;3.23;100.00
23176;BME280;19910;42.652;23.332;2022-11-30T02:29:40;94774.66;;;3.20;100.00
23176;BME280;19910;42.652;23.332;2022-11-30T02:32:12;94772.53;;;3.17;100.00
23176;BME280;19910;42.652;23.332;2022-11-30T02:34:41;94763.97;;;3.15;100.00
23176;BME280;19910;42.652;23.332;2022-11-30T02:37:11;94770.91;;;3.21;100.00
23176;BME280;19910;42.652;23.332;2022-11-30T02:39:39;94769.59;;;3.18;100.00
23176;BME280;19910;42.652;23.332;2022-11-30T02:42:09;94761.47;;;3.29;100.00
23176;BME280;19910;42.652;23.332;2022-11-30T02:44:38;94754.66;;;3.12;100.00
23176;BME280;19910;42.652;23.332;2022-11-30T02:47:15;94759.69;;;3.19;100.00
23176;BME280;19910;42.652;23.332;2022-11-30T02:49:48;94760.22;;;3.16;100.00
23176;BME280;19910;42.652;23.332;2022-11-30T02:52:18;94763.72;;;3.16;100.00
23176;BME280;19910;42.652;23.332;2022-11-30T02:54:47;94765.59;;;3.16;100.00
23176;BME280;19910;42.652;23.332;2022-11-30T02:57:14;94764.94;;;3.34;100.00
23176;BME280;19910;42.652;23.332;2022-11-30T02:59:43;94763.34;;;3.33;100.00
23176;BME280;19910;42.652;23.332;2022-11-30T03:02:09;94767.13;;;3.27;100.00
23176;BME280;19910;42.652;23.332;2022-11-30T03:04:36;94772.81;;;3.15;100.00
23176;BME280;19910;42.652;23.332;2022-11-30T03:07:03;94767.47;;;3.15;100.00
23176;BME280;19910;42.652;23.332;2022-11-30T03:09:30;94762.09;;;3.20;100.00
23176;BME280;19910;42.652;23.332;2022-11-30T03:11:56;94762.88;;;3.21;100.00
23176;BME280;19910;42.652;23.332;2022-11-30T03:14:23;94759.41;;;3.20;100.00
23176;BME280;19910;42.652;23.332;2022-11-30T03:16:51;94768.22;;;3.21;100.00
23176;BME280;19910;42.652;23.332;2022-11-30T03:19:18;94758.59;;;3.25;100.00
23176;BME280;19910;42.652;23.332;2022-11-30T03:21:45;94763.13;;;3.25;100.00
23176;BME280;19910;42.652;23.332;2022-11-30T03:24:12;94767.13;;;3.27;100.00
23176;BME280;19910;42.652;23.332;2022-11-30T03:26:41;94757.22;;;3.28;100.00
23176;BME280;19910;42.652;23.332;2022-11-30T03:29:08;94761.78;;;3.27;100.00
23176;BME280;19910;42.652;23.332;2022-11-30T03:31:35;94761.78;;;3.27;100.00
23176;BME280;19910;42.652;23.332;2022-11-30T03:34:12;94754.06;;;3.20;100.00
23176;BME280;19910;42.652;23.332;2022-11-30T03:36:39;94763.13;;;3.25;100.00
23176;BME280;19910;42.652;23.332;2022-11-30T03:39:05;94769.28;;;3.25;100.00
23176;BME280;19910;42.652;23.332;2022-11-30T03:41:34;94771.38;;;3.28;100.00
23176;BME280;19910;42.652;23.332;2022-11-30T03:44:00;94767.41;;;3.26;100.00
23176;BME280;19910;42.652;23.332;2022-11-30T03:46:27;94768.50;;;3.25;100.00
23176;BME280;19910;42.652;23.332;2022-11-30T03:48:54;94763.34;;;3.28;100.00
23176;BME280;19910;42.652;23.332;2022-11-30T03:51:22;94778.66;;;3.28;100.00
23176;BME280;19910;42.652;23.332;2022-11-30T03:53:49;94774.38;;;3.27;100.00
23176;BME280;19910;42.652;23.332;2022-11-30T03:56:16;94774.66;;;3.20;100.00
23176;BME280;19910;42.652;23.332;2022-11-30T03:58:42;94775.44;;;3.26;100.00
23176;BME280;19910;42.652;23.332;2022-11-30T04:01:12;94770.09;;;3.26;100.00
23176;BME280;19910;42.652;23.332;2022-11-30T04:03:40;94779.50;;;3.18;100.00
23176;BME280;19910;42.652;23.332;2022-11-30T04:06:09;94778.97;;;3.16;100.00
23176;BME280;19910;42.652;23.332;2022-11-30T04:08:38;94780.53;;;3.22;100.00
23176;BME280;19910;42.652;23.332;2022-11-30T04:11:05;94778.94;;;3.21;100.00
23176;BME280;19910;42.652;23.332;2022-11-30T04:13:33;94770.97;;;3.11;100.00
23176;BME280;19910;42.652;23.332;2022-11-30T04:16:00;94776.88;;;3.13;100.00
23176;BME280;19910;42.652;23.332;2022-11-30T04:18:29;94782.72;;;3.15;100.00
23176;BME280;19910;42.652;23.332;2022-11-30T04:20:57;94782.16;;;3.18;100.00
23176;BME280;19910;42.652;23.332;2022-11-30T04:23:25;94785.66;;;3.18;100.00
23176;BME280;19910;42.652;23.332;2022-11-30T04:25:56;94788.03;;;3.20;100.00
23176;BME280;19910;42.652;23.332;2022-11-30T04:28:23;94786.97;;;3.21;100.00
23176;BME280;19910;42.652;23.332;2022-11-30T04:30:51;94785.38;;;3.15;100.00
23176;BME280;19910;42.652;23.332;2022-11-30T04:33:18;94794.44;;;3.24;100.00
23176;BME280;19910;42.652;23.332;2022-11-30T04:35:47;94785.91;;;3.22;100.00
23176;BME280;19910;42.652;23.332;2022-11-30T04:38:14;94776.88;;;3.47;100.00
23176;BME280;19910;42.652;23.332;2022-11-30T04:40:42;94783.84;;;3.82;100.00
23176;BME280;19910;42.652;23.332;2022-11-30T04:43:11;94780.47;;;4.00;100.00
23176;BME280;19910;42.652;23.332;2022-11-30T04:45:38;94776.16;;;4.52;100.00
23176;BME280;19910;42.652;23.332;2022-11-30T04:48:06;94780.41;;;3.76;100.00
23176;BME280;19910;42.652;23.332;2022-11-30T04:50:33;94796.44;;;3.47;100.00
23176;BME280;19910;42.652;23.332;2022-11-30T04:53:00;94786.34;;;3.34;100.00
23176;BME280;19910;42.652;23.332;2022-11-30T04:55:26;94800.53;;;3.35;100.00
23176;BME280;19910;42.652;23.332;2022-11-30T04:57:53;94799.75;;;3.29;100.00
23176;BME280;19910;42.652;23.332;2022-11-30T05:00:22;94801.94;;;3.27;100.00
23176;BME280;19910;42.652;23.332;2022-11-30T05:02:49;94789.66;;;3.21;100.00
23176;BME280;19910;42.652;23.332;2022-11-30T05:05:15;94796.53;;;3.32;100.00
23176;BME280;19910;42.652;23.332;2022-11-30T05:07:42;94797.09;;;3.29;100.00
23176;BME280;19910;42.652;23.332;2022-11-30T05:10:10;94800.06;;;3.28;100.00
23176;BME280;19910;42.652;23.332;2022-11-30T05:12:38;94802.97;;;3.31;100.00
23176;BME280;19910;42.652;23.332;2022-11-30T05:15:06;94800.09;;;3.17;100.00
23176;BME280;19910;42.652;23.332;2022-11-30T05:17:42;94804.09;;;3.20;100.00
23176;BME280;19910;42.652;23.332;2022-11-30T05:20:10;94806.78;;;3.20;100.00
23176;BME280;19910;42.652;23.332;2022-11-30T05:22:36;94810.00;;;3.22;100.00
23176;BME280;19910;42.652;23.332;2022-11-30T05:25:04;94810.00;;;3.22;100.00
23176;BME280;19910;42.652;23.332;2022-11-30T05:27:30;94808.13;;;3.22;100.00
23176;BME280;19910;42.652;23.332;2022-11-30T05:29:57;94796.59;;;3.22;100.00
23176;BME280;19910;42.652;23.332;2022-11-30T05:32:24;94805.69;;;3.26;100.00
23176;BME280;19910;42.652;23.332;2022-11-30T05:34:52;94799.56;;;3.20;100.00
23176;BME280;19910;42.652;23.332;2022-11-30T05:37:19;94801.44;;;3.15;100.00
23176;BME280;19910;42.652;23.332;2022-11-30T05:39:46;94807.91;;;3.09;100.00
23176;BME280;19910;42.652;23.332;2022-11-30T05:42:12;94810.00;;;3.17;100.00
23176;BME280;19910;42.652;23.332;2022-11-30T05:44:39;94809.47;;;3.20;100.00
23176;BME280;19910;42.652;23.332;2022-11-30T05:47:06;94816.16;;;3.17;100.00
23176;BME280;19910;42.652;23.332;2022-11-30T05:49:32;94823.44;;;3.12;100.00
23176;BME280;19910;42.652;23.332;2022-11-30T05:52:01;94818.03;;;3.17;100.00
23176;BME280;19910;42.652;23.332;2022-11-30T05:54:27;94817.22;;;3.21;100.00
23176;BME280;19910;42.652;23.332;2022-11-30T05:56:54;94825.72;;;3.29;100.00
23176;BME280;19910;42.652;23.332;2022-11-30T05:59:21;94824.09;;;3.33;100.00
23176;BME280;19910;42.652;23.332;2022-11-30T06:01:50;94824.16;;;3.22;100.00
23176;BME280;19910;42.652;23.332;2022-11-30T06:04:17;94834.56;;;3.29;100.00
23176;BME280;19910;42.652;23.332;2022-11-30T06:06:43;94830.25;;;3.33;100.00
23176;BME280;19910;42.652;23.332;2022-11-30T06:09:12;94837.47;;;3.38;100.00
23176;BME280;19910;42.652;23.332;2022-11-30T06:11:38;94845.25;;;3.29;100.00
23176;BME280;19910;42.652;23.332;2022-11-30T06:14:05;94838.38;;;3.18;100.00
23176;BME280;19910;42.652;23.332;2022-11-30T06:16:32;94842.91;;;3.22;100.00
23176;BME280;19910;42.652;23.332;2022-11-30T06:18:59;94851.19;;;3.26;100.00
23176;BME280;19910;42.652;23.332;2022-11-30T06:21:25;94851.19;;;3.26;100.00
23176;BME280;19910;42.652;23.332;2022-11-30T06:23:52;94854.34;;;3.33;100.00
23176;BME280;19910;42.652;23.332;2022-11-30T06:26:20;94845.25;;;3.29;100.00
23176;BME280;19910;42.652;23.332;2022-11-30T06:28:47;94856.22;;;3.33;100.00
23176;BME280;19910;42.652;23.332;2022-11-30T06:31:14;94845.25;;;3.34;100.00
23176;BME280;19910;42.652;23.332;2022-11-30T06:33:41;94835.63;;;3.33;100.00
23176;BME280;19910;42.652;23.332;2022-11-30T06:36:08;94848.44;;;3.36;100.00
23176;BME280;19910;42.652;23.332;2022-11-30T06:38:35;94847.38;;;3.37;100.00
23176;BME280;19910;42.652;23.332;2022-11-30T06:41:03;94858.63;;;3.34;100.00
23176;BME280;19910;42.652;23.332;2022-11-30T06:43:36;94855.94;;;3.39;100.00
23176;BME280;19910;42.652;23.332;2022-11-30T06:46:04;94857.28;;;3.37;100.00
23176;BME280;19910;42.652;23.332;2022-11-30T06:48:32;94852.19;;;3.40;100.00
23176;BME280;19910;42.652;23.332;2022-11-30T06:50:58;94860.25;;;3.35;100.00
23176;BME280;19910;42.652;23.332;2022-11-30T06:53:26;94861.25;;;3.44;100.00
23176;BME280;19910;42.652;23.332;2022-11-30T06:55:53;94851.34;;;3.45;100.00
23176;BME280;19910;42.652;23.332;2022-11-30T06:58:20;94848.44;;;3.41;100.00
23176;BME280;19910;42.652;23.332;2022-11-30T07:00:48;94849.44;;;3.50;100.00
23176;BME280;19910;42.652;23.332;2022-11-30T07:03:15;94845.97;;;3.50;100.00
23176;BME280;19910;42.652;23.332;2022-11-30T07:05:43;94844.59;;;3.52;100.00
23176;BME280;19910;42.652;23.332;2022-11-30T07:08:10;94846.69;;;3.61;100.00
23176;BME280;19910;42.652;23.332;2022-11-30T07:10:40;94847.22;;;3.57;100.00
23176;BME280;19910;42.652;23.332;2022-11-30T07:13:09;94850.44;;;3.60;100.00
23176;BME280;19910;42.652;23.332;2022-11-30T07:15:36;94847.22;;;3.57;100.00
23176;BME280;19910;42.652;23.332;2022-11-30T07:18:05;94846.22;;;3.53;100.00
23176;BME280;19910;42.652;23.332;2022-11-30T07:20:32;94846.44;;;3.57;100.00
23176;BME280;19910;42.652;23.332;2022-11-30T07:22:59;94848.84;;;3.58;100.00
23176;BME280;19910;42.652;23.332;2022-11-30T07:25:47;94838.97;;;3.54;100.00
23176;BME280;19910;42.652;23.332;2022-11-30T07:28:31;94841.88;;;3.57;100.00
23176;BME280;19910;42.652;23.332;2022-11-30T07:30:58;94846.69;;;3.61;100.00
23176;BME280;19910;42.652;23.332;2022-11-30T07:33:26;94848.78;;;3.69;100.00
23176;BME280;19910;42.652;23.332;2022-11-30T07:35:56;94844.53;;;3.63;100.00
23176;BME280;19910;42.652;23.332;2022-11-30T07:38:23;94850.94;;;3.67;100.00
23176;BME280;19910;42.652;23.332;2022-11-30T07:40:49;94845.53;;;3.72;100.00
23176;BME280;19910;42.652;23.332;2022-11-30T07:43:19;94843.34;;;3.79;100.00
23176;BME280;19910;42.652;23.332;2022-11-30T07:45:51;94836.34;;;3.83;100.00
23176;BME280;19910;42.652;23.332;2022-11-30T07:48:18;94838.19;;;3.87;100.00
23176;BME280;19910;42.652;23.332;2022-11-30T07:50:46;94843.88;;;3.81;100.00
23176;BME280;19910;42.652;23.332;2022-11-30T07:53:14;94847.03;;;3.88;100.00
23176;BME280;19910;42.652;23.332;2022-11-30T07:55:41;94842.56;;;3.78;100.00
23176;BME280;19910;42.652;23.332;2022-11-30T07:58:08;94844.31;;;3.93;100.00
23176;BME280;19910;42.652;23.332;2022-11-30T08:00:35;94843.19;;;3.99;100.00
23176;BME280;19910;42.652;23.332;2022-11-30T08:03:02;94839.97;;;3.97;100.00
23176;BME280;19910;42.652;23.332;2022-11-30T08:05:29;94837.25;;;4.02;100.00
23176;BME280;19910;42.652;23.332;2022-11-30T08:07:58;94843.13;;;4.09;100.00
23176;BME280;19910;42.652;23.332;2022-11-30T08:10:24;94832.41;;;4.09;100.00
23176;BME280;19910;42.652;23.332;2022-11-30T08:12:52;94840.72;;;4.08;100.00
23176;BME280;19910;42.652;23.332;2022-11-30T08:15:19;94835.47;;;3.92;100.00
23176;BME280;19910;42.652;23.332;2022-11-30T08:17:45;94845.34;;;3.97;100.00
23176;BME280;19910;42.652;23.332;2022-11-30T08:20:14;94841.56;;;3.98;100.00
23176;BME280;19910;42.652;23.332;2022-11-30T08:22:41;94843.97;;;4.00;100.00
23176;BME280;19910;42.652;23.332;2022-11-30T08:25:09;94845.34;;;3.97;100.00
23176;BME280;19910;42.652;23.332;2022-11-30T08:27:36;94849.03;;;4.06;100.00
23176;BME280;19910;42.652;23.332;2022-11-30T08:30:04;94847.88;;;4.12;100.00
23176;BME280;19910;42.652;23.332;2022-11-30T08:32:31;94844.78;;;4.00;100.00
23176;BME280;19910;42.652;23.332;2022-11-30T08:34:57;94847.28;;;3.91;100.00
23176;BME280;19910;42.652;23.332;2022-11-30T08:37:24;94845.41;;;3.87;100.00
23176;BME280;19910;42.652;23.332;2022-11-30T08:39:51;94848.97;;;3.82;100.00
23176;BME280;19910;42.652;23.332;2022-11-30T08:42:19;94862.84;;;3.84;100.00
23176;BME280;19910;42.652;23.332;2022-11-30T08:44:46;94849.19;;;3.86;100.00
23176;BME280;19910;42.652;23.332;2022-11-30T08:47:15;94827.75;;;3.86;100.00
23176;BME280;19910;42.652;23.332;2022-11-30T08:49:42;94845.34;;;3.97;100.00
23176;BME280;19910;42.652;23.332;2022-11-30T08:52:09;94840.78;;;3.98;100.00
23176;BME280;19910;42.652;23.332;2022-11-30T08:54:36;94839.97;;;3.97;100.00
23176;BME280;19910;42.652;23.332;2022-11-30T08:57:03;94836.72;;;4.05;100.00
23176;BME280;19910;42.652;23.332;2022-11-30T08:59:32;94843.13;;;4.09;100.00
23176;BME280;19910;42.652;23.332;2022-11-30T09:01:59;94844.69;;;4.10;100.00
23176;BME280;19910;42.652;23.332;2022-11-30T09:04:25;94852.13;;;4.18;100.00
23176;BME280;19910;42.652;23.332;2022-11-30T09:06:52;94843.81;;;4.20;100.00
23176;BME280;19910;42.652;23.332;2022-11-30T09:09:23;94853.75;;;4.19;100.00
23176;BME280;19910;42.652;23.332;2022-11-30T09:11:50;94849.03;;;4.06;100.00
23176;BME280;19910;42.652;23.332;2022-11-30T09:14:17;94854.31;;;4.11;100.00
23176;BME280;19910;42.652;23.332;2022-11-30T09:16:45;94844.66;;;4.15;100.00
23176;BME280;19910;42.652;23.332;2022-11-30T09:19:12;94855.34;;;4.20;100.00
23176;BME280;19910;42.652;23.332;2022-11-30T09:21:38;94852.03;;;4.28;100.00
23176;BME280;19910;42.652;23.332;2022-11-30T09:24:06;94845.59;;;4.29;100.00
23176;BME280;19910;42.652;23.332;2022-11-30T09:26:33;94850.16;;;4.29;100.00
23176;BME280;19910;42.652;23.332;2022-11-30T09:29:00;94853.97;;;4.23;100.00
23176;BME280;19910;42.652;23.332;2022-11-30T09:31:26;94859.78;;;4.35;100.00
23176;BME280;19910;42.652;23.332;2022-11-30T09:33:56;94860.75;;;4.44;100.00
23176;BME280;19910;42.652;23.332;2022-11-30T09:36:24;94862.09;;;4.42;100.00
23176;BME280;19910;42.652;23.332;2022-11-30T09:38:53;94867.03;;;4.29;100.00
23176;BME280;19910;42.652;23.332;2022-11-30T09:41:42;94856.28;;;4.35;100.00
23176;BME280;19910;42.652;23.332;2022-11-30T09:44:16;94866.44;;;4.38;100.00
23176;BME280;19910;42.652;23.332;2022-11-30T09:46:51;94866.34;;;4.48;100.00
23176;BME280;19910;42.652;23.332;2022-11-30T09:49:22;94870.00;;;4.57;100.00
23176;BME280;19910;42.652;23.332;2022-11-30T09:51:52;94866.25;;;4.58;100.00
23176;BME280;19910;42.652;23.332;2022-11-30T09:54:24;94863.59;;;4.53;100.00
23176;BME280;19910;42.652;23.332;2022-11-30T09:57:01;94868.75;;;4.49;100.00
23176;BME280;19910;42.652;23.332;2022-11-30T09:59:32;94847.28;;;4.49;100.00
23176;BME280;19910;42.652;23.332;2022-11-30T10:02:13;94852.88;;;4.53;100.00
23176;BME280;19910;42.652;23.332;2022-11-30T10:04:42;94847.97;;;4.60;100.00
23176;BME280;19910;42.652;23.332;2022-11-30T10:07:31;94850.38;;;4.61;100.00
23176;BME280;19910;42.652;23.332;2022-11-30T10:10:05;94846.94;;;4.56;100.00
23176;BME280;19910;42.652;23.332;2022-11-30T10:12:38;94851.75;;;4.59;100.00
23176;BME280;19910;42.652;23.332;2022-11-30T10:15:16;94852.81;;;4.58;100.00
23176;BME280;19910;42.652;23.332;2022-11-30T10:17:54;94850.09;;;4.63;100.00
23176;BME280;19910;42.652;23.332;2022-11-30T10:20:48;94852.66;;;4.49;100.00
23176;BME280;19910;42.652;23.332;2022-11-30T10:23:25;94835.53;;;4.45;100.00
23176;BME280;19910;42.652;23.332;2022-11-30T10:25:57;94844.78;;;4.58;100.00
23176;BME280;19910;42.652;23.332;2022-11-30T10:28:35;94835.41;;;4.55;100.00
23176;BME280;19910;42.652;23.332;2022-11-30T10:31:09;94838.44;;;4.49;100.00
23176;BME280;19910;42.652;23.332;2022-11-30T10:33:40;94826.16;;;4.43;100.00
23176;BME280;19910;42.652;23.332;2022-11-30T10:36:12;94835.91;;;4.34;100.00
23176;BME280;19910;42.652;23.332;2022-11-30T10:38:42;94835.91;;;4.34;100.00
23176;BME280;19910;42.652;23.332;2022-11-30T10:41:13;94829.91;;;4.42;100.00
23176;BME280;19910;42.652;23.332;2022-11-30T10:43:44;94830.28;;;4.59;100.00
23176;BME280;19910;42.652;23.332;2022-11-30T10:46:21;94834.84;;;4.58;100.00
23176;BME280;19910;42.652;23.332;2022-11-30T10:48:56;94820.75;;;4.72;100.00
23176;BME280;19910;42.652;23.332;2022-11-30T10:51:26;94823.75;;;4.65;100.00
23176;BME280;19910;42.652;23.332;2022-11-30T10:53:53;94821.41;;;4.63;100.00
23176;BME280;19910;42.652;23.332;2022-11-30T10:56:20;94823.88;;;4.55;100.00
23176;BME280;19910;42.652;23.332;2022-11-30T10:58:53;94811.84;;;4.52;100.00
23176;BME280;19910;42.652;23.332;2022-11-30T11:01:31;94822.63;;;4.47;100.00
23176;BME280;19910;42.652;23.332;2022-11-30T11:04:12;94816.72;;;4.50;100.00
23176;BME280;19910;42.652;23.332;2022-11-30T11:06:43;94807.00;;;4.54;100.00
23176;BME280;19910;42.652;23.332;2022-11-30T11:09:31;94808.47;;;4.42;100.00
23176;BME280;19910;42.652;23.332;2022-11-30T11:12:00;94800.69;;;4.40;100.00
23176;BME280;19910;42.652;23.332;2022-11-30T11:14:28;94808.94;;;4.49;100.00
23176;BME280;19910;42.652;23.332;2022-11-30T11:16:56;94819.19;;;4.42;100.00
23176;BME280;19910;42.652;23.332;2022-11-30T11:19:35;94806.31;;;4.44;100.00
23176;BME280;19910;42.652;23.332;2022-11-30T11:22:14;94805.09;;;4.55;100.00
23176;BME280;19910;42.652;23.332;2022-11-30T11:24:42;94807.34;;;4.48;100.00
23176;BME280;19910;42.652;23.332;2022-11-30T11:27:19;94804.59;;;4.53;100.00
23176;BME280;19910;42.652;23.332;2022-11-30T11:29:59;94808.72;;;4.45;100.00
23176;BME280;19910;42.652;23.332;2022-11-30T11:32:26;94814.88;;;4.46;100.00
23176;BME280;19910;42.652;23.332;2022-11-30T11:34:55;94811.66;;;4.44;100.00
23176;BME280;19910;42.652;23.332;2022-11-30T11:37:25;94799.34;;;4.43;100.00
23176;BME280;19910;42.652;23.332;2022-11-30T11:40:02;94810.59;;;4.45;100.00
23176;BME280;19910;42.652;23.332;2022-11-30T11:42:32;94805.78;;;4.42;100.00
23176;BME280;19910;42.652;23.332;2022-11-30T11:45:00;94796.13;;;4.41;100.00
23176;BME280;19910;42.652;23.332;2022-11-30T11:47:34;94800.78;;;4.59;100.00
23176;BME280;19910;42.652;23.332;2022-11-30T11:50:26;94801.56;;;4.59;100.00
23176;BME280;19910;42.652;23.332;2022-11-30T11:53:16;94794.34;;;4.60;100.00
23176;BME280;19910;42.652;23.332;2022-11-30T11:55:52;94796.50;;;4.58;100.00
23176;BME280;19910;42.652;23.332;2022-11-30T11:58:26;94802.94;;;4.57;100.00
23176;BME280;19910;42.652;23.332;2022-11-30T12:00:57;94801.28;;;4.61;100.00
23176;BME280;19910;42.652;23.332;2022-11-30T12:03:33;94805.06;;;4.60;100.00
23176;BME280;19910;42.652;23.332;2022-11-30T12:06:06;94808.25;;;4.62;100.00
23176;BME280;19910;42.652;23.332;2022-11-30T12:08:42;94811.22;;;4.60;100.00
23176;BME280;19910;42.652;23.332;2022-11-30T12:11:13;94802.91;;;4.62;100.00
23176;BME280;19910;42.652;23.332;2022-11-30T12:13:43;94814.06;;;4.69;100.00
23176;BME280;19910;42.652;23.332;2022-11-30T12:16:25;94815.66;;;4.70;100.00
23176;BME280;19910;42.652;23.332;2022-11-30T12:19:01;94815.09;;;4.73;100.00
23176;BME280;19910;42.652;23.332;2022-11-30T12:21:39;94818.88;;;4.72;100.00
23176;BME280;19910;42.652;23.332;2022-11-30T12:24:40;94811.34;;;4.74;100.00
23176;BME280;19910;42.652;23.332;2022-11-30T12:27:21;94813.47;;;4.77;100.00
23176;BME280;19910;42.652;23.332;2022-11-30T12:29:59;94818.81;;;4.77;100.00
23176;BME280;19910;42.652;23.332;2022-11-30T12:32:41;94820.72;;;4.77;100.00
23176;BME280;19910;42.652;23.332;2022-11-30T12:35:23;94810.78;;;4.77;100.00
23176;BME280;19910;42.652;23.332;2022-11-30T12:38:04;94809.47;;;4.75;100.00
23176;BME280;19910;42.652;23.332;2022-11-30T12:40:44;94817.38;;;4.85;100.00
23176;BME280;19910;42.652;23.332;2022-11-30T12:43:20;94810.69;;;4.82;100.00
23176;BME280;19910;42.652;23.332;2022-11-30T12:45:52;94821.16;;;4.84;100.00
23176;BME280;19910;42.652;23.332;2022-11-30T12:48:27;94819.03;;;4.81;100.00
23176;BME280;19910;42.652;23.332;2022-11-30T12:51:10;94821.94;;;4.84;100.00
23176;BME280;19910;42.652;23.332;2022-11-30T12:53:44;94827.31;;;4.84;100.00
23176;BME280;19910;42.652;23.332;2022-11-30T12:56:25;94825.72;;;4.83;100.00
23176;BME280;19910;42.652;23.332;2022-11-30T12:58:59;94835.94;;;4.81;100.00
23176;BME280;19910;42.652;23.332;2022-11-30T13:01:47;94831.56;;;4.90;100.00
23176;BME280;19910;42.652;23.332;2022-11-30T13:04:20;94828.34;;;4.88;100.00
23176;BME280;19910;42.652;23.332;2022-11-30T13:06:56;94823.97;;;4.92;100.00
23176;BME280;19910;42.652;23.332;2022-11-30T13:09:28;94834.03;;;4.82;100.00